sensor_id;sensor_type;location;lat;lon;timestamp;temperature;humidity
9497;DHT22;4786;51.270;4.456;2023-07-09T00:00:17;23.90;99.90
9497;DHT22;4786;51.270;4.456;2023-07-09T00:02:44;23.90;99.90
9497;DHT22;4786;51.270;4.456;2023-07-09T00:05:15;24.00;99.90
9497;DHT22;4786;51.270;4.456;2023-07-09T00:07:43;23.90;99.90
9497;DHT22;4786;51.270;4.456;2023-07-09T00:10:16;23.80;99.90
9497;DHT22;4786;51.270;4.456;2023-07-09T00:12:43;23.70;99.90
9497;DHT22;4786;51.270;4.456;2023-07-09T00:15:10;23.70;99.90
9497;DHT22;4786;51.270;4.456;2023-07-09T00:17:37;23.70;99.90
9497;DHT22;4786;51.270;4.456;2023-07-09T00:20:06;23.70;99.90
9497;DHT22;4786;51.270;4.456;2023-07-09T00:22:36;23.80;99.90
9497;DHT22;4786;51.270;4.456;2023-07-09T00:25:02;23.70;99.90
9497;DHT22;4786;51.270;4.456;2023-07-09T00:27:29;23.70;99.90
9497;DHT22;4786;51.270;4.456;2023-07-09T00:29:56;23.70;99.90
9497;DHT22;4786;51.270;4.456;2023-07-09T00:32:22;23.70;99.90
9497;DHT22;4786;51.270;4.456;2023-07-09T00:34:51;23.70;99.90
9497;DHT22;4786;51.270;4.456;2023-07-09T00:37:20;23.70;99.90
9497;DHT22;4786;51.270;4.456;2023-07-09T00:39:47;23.70;99.90
9497;DHT22;4786;51.270;4.456;2023-07-09T00:42:15;23.70;99.90
9497;DHT22;4786;51.270;4.456;2023-07-09T00:44:44;23.70;99.90
9497;DHT22;4786;51.270;4.456;2023-07-09T00:47:22;23.60;99.90
9497;DHT22;4786;51.270;4.456;2023-07-09T00:50:15;23.60;99.90
9497;DHT22;4786;51.270;4.456;2023-07-09T00:52:59;23.60;99.90
9497;DHT22;4786;51.270;4.456;2023-07-09T00:55:32;23.60;99.90
9497;DHT22;4786;51.270;4.456;2023-07-09T00:58:02;23.50;99.90
9497;DHT22;4786;51.270;4.456;2023-07-09T01:00:37;23.50;99.90
9497;DHT22;4786;51.270;4.456;2023-07-09T01:03:47;23.50;99.90
9497;DHT22;4786;51.270;4.456;2023-07-09T01:06:08;23.40;99.90
9497;DHT22;4786;51.270;4.456;2023-07-09T01:08:36;23.40;99.90
9497;DHT22;4786;51.270;4.456;2023-07-09T01:11:03;23.40;99.90
9497;DHT22;4786;51.270;4.456;2023-07-09T01:13:34;23.30;99.90
9497;DHT22;4786;51.270;4.456;2023-07-09T01:16:01;23.20;99.90
9497;DHT22;4786;51.270;4.456;2023-07-09T01:18:26;23.10;99.90
9497;DHT22;4786;51.270;4.456;2023-07-09T01:21:08;23.10;99.90
9497;DHT22;4786;51.270;4.456;2023-07-09T01:23:34;23.00;99.90
9497;DHT22;4786;51.270;4.456;2023-07-09T01:26:00;23.00;99.90
9497;DHT22;4786;51.270;4.456;2023-07-09T01:28:26;22.90;99.90
9497;DHT22;4786;51.270;4.456;2023-07-09T01:30:52;23.00;99.90
9497;DHT22;4786;51.270;4.456;2023-07-09T01:33:20;23.00;99.90
9497;DHT22;4786;51.270;4.456;2023-07-09T01:35:47;23.00;99.90
9497;DHT22;4786;51.270;4.456;2023-07-09T01:38:13;23.00;99.90
9497;DHT22;4786;51.270;4.456;2023-07-09T01:40:39;23.00;99.90
9497;DHT22;4786;51.270;4.456;2023-07-09T01:43:05;23.00;99.90
9497;DHT22;4786;51.270;4.456;2023-07-09T01:45:32;22.90;99.90
9497;DHT22;4786;51.270;4.456;2023-07-09T01:47:58;22.90;99.90
9497;DHT22;4786;51.270;4.456;2023-07-09T01:50:24;22.90;99.90
9497;DHT22;4786;51.270;4.456;2023-07-09T01:52:52;22.90;99.90
9497;DHT22;4786;51.270;4.456;2023-07-09T01:55:19;22.80;99.90
9497;DHT22;4786;51.270;4.456;2023-07-09T01:57:45;22.90;99.90
9497;DHT22;4786;51.270;4.456;2023-07-09T02:00:14;22.90;99.90
9497;DHT22;4786;51.270;4.456;2023-07-09T02:02:42;22.90;99.90
9497;DHT22;4786;51.270;4.456;2023-07-09T02:05:32;22.90;99.90
9497;DHT22;4786;51.270;4.456;2023-07-09T02:07:58;22.90;99.90
9497;DHT22;4786;51.270;4.456;2023-07-09T02:10:24;22.80;99.90
9497;DHT22;4786;51.270;4.456;2023-07-09T02:12:51;22.80;99.90
9497;DHT22;4786;51.270;4.456;2023-07-09T02:15:17;22.80;99.90
9497;DHT22;4786;51.270;4.456;2023-07-09T02:17:43;22.80;99.90
9497;DHT22;4786;51.270;4.456;2023-07-09T02:20:10;22.80;99.90
9497;DHT22;4786;51.270;4.456;2023-07-09T02:22:38;22.90;99.90
9497;DHT22;4786;51.270;4.456;2023-07-09T02:25:05;22.90;99.90
9497;DHT22;4786;51.270;4.456;2023-07-09T02:27:35;22.80;99.90
9497;DHT22;4786;51.270;4.456;2023-07-09T02:30:02;22.90;99.90
9497;DHT22;4786;51.270;4.456;2023-07-09T02:32:28;22.90;99.90
9497;DHT22;4786;51.270;4.456;2023-07-09T02:34:55;22.90;99.90
9497;DHT22;4786;51.270;4.456;2023-07-09T02:37:23;22.80;99.90
9497;DHT22;4786;51.270;4.456;2023-07-09T02:39:50;22.80;99.90
9497;DHT22;4786;51.270;4.456;2023-07-09T02:42:18;22.80;99.90
9497;DHT22;4786;51.270;4.456;2023-07-09T02:44:48;22.80;99.90
9497;DHT22;4786;51.270;4.456;2023-07-09T02:47:17;22.80;99.90
9497;DHT22;4786;51.270;4.456;2023-07-09T02:49:43;22.80;99.90
9497;DHT22;4786;51.270;4.456;2023-07-09T02:52:10;22.70;99.90
9497;DHT22;4786;51.270;4.456;2023-07-09T02:54:38;22.70;99.90
9497;DHT22;4786;51.270;4.456;2023-07-09T02:57:05;22.70;99.90
9497;DHT22;4786;51.270;4.456;2023-07-09T02:59:31;22.70;99.90
9497;DHT22;4786;51.270;4.456;2023-07-09T03:01:57;22.70;99.90
9497;DHT22;4786;51.270;4.456;2023-07-09T03:04:23;22.70;99.90
9497;DHT22;4786;51.270;4.456;2023-07-09T03:06:49;22.70;99.90
9497;DHT22;4786;51.270;4.456;2023-07-09T03:09:15;22.70;99.90
9497;DHT22;4786;51.270;4.456;2023-07-09T03:11:42;22.60;99.90
9497;DHT22;4786;51.270;4.456;2023-07-09T03:14:08;22.60;99.90
9497;DHT22;4786;51.270;4.456;2023-07-09T03:16:34;22.60;99.90
9497;DHT22;4786;51.270;4.456;2023-07-09T03:19:01;22.70;99.90
9497;DHT22;4786;51.270;4.456;2023-07-09T03:21:28;22.80;99.90
9497;DHT22;4786;51.270;4.456;2023-07-09T03:23:55;22.80;99.90
9497;DHT22;4786;51.270;4.456;2023-07-09T03:26:22;22.90;99.90
9497;DHT22;4786;51.270;4.456;2023-07-09T03:28:48;22.90;99.90
9497;DHT22;4786;51.270;4.456;2023-07-09T03:31:14;22.90;99.90
9497;DHT22;4786;51.270;4.456;2023-07-09T03:33:40;23.00;99.90
9497;DHT22;4786;51.270;4.456;2023-07-09T03:36:06;22.80;99.90
9497;DHT22;4786;51.270;4.456;2023-07-09T03:38:32;22.70;99.90
9497;DHT22;4786;51.270;4.456;2023-07-09T03:40:58;22.70;99.90
9497;DHT22;4786;51.270;4.456;2023-07-09T03:43:25;22.60;99.90
9497;DHT22;4786;51.270;4.456;2023-07-09T03:45:51;22.50;99.90
9497;DHT22;4786;51.270;4.456;2023-07-09T03:48:19;22.40;99.90
9497;DHT22;4786;51.270;4.456;2023-07-09T03:50:46;22.40;99.90
9497;DHT22;4786;51.270;4.456;2023-07-09T03:53:14;22.40;99.90
9497;DHT22;4786;51.270;4.456;2023-07-09T03:55:41;22.40;99.90
9497;DHT22;4786;51.270;4.456;2023-07-09T03:58:07;22.40;99.90
9497;DHT22;4786;51.270;4.456;2023-07-09T04:00:34;22.40;99.90
9497;DHT22;4786;51.270;4.456;2023-07-09T04:03:00;22.40;99.90
9497;DHT22;4786;51.270;4.456;2023-07-09T04:05:27;22.30;99.90
9497;DHT22;4786;51.270;4.456;2023-07-09T04:07:54;22.30;99.90
9497;DHT22;4786;51.270;4.456;2023-07-09T04:10:24;22.30;99.90
9497;DHT22;4786;51.270;4.456;2023-07-09T04:12:50;22.20;99.90
9497;DHT22;4786;51.270;4.456;2023-07-09T04:15:16;22.20;99.90
9497;DHT22;4786;51.270;4.456;2023-07-09T04:17:42;22.20;99.90
9497;DHT22;4786;51.270;4.456;2023-07-09T04:20:09;22.30;99.90
9497;DHT22;4786;51.270;4.456;2023-07-09T04:22:36;22.30;99.90
9497;DHT22;4786;51.270;4.456;2023-07-09T04:25:04;22.30;99.90
9497;DHT22;4786;51.270;4.456;2023-07-09T04:27:31;22.40;99.90
9497;DHT22;4786;51.270;4.456;2023-07-09T04:29:57;22.40;99.90
9497;DHT22;4786;51.270;4.456;2023-07-09T04:32:23;22.40;99.90
9497;DHT22;4786;51.270;4.456;2023-07-09T04:34:49;22.40;99.90
9497;DHT22;4786;51.270;4.456;2023-07-09T04:37:16;22.50;99.90
9497;DHT22;4786;51.270;4.456;2023-07-09T04:39:43;22.50;99.90
9497;DHT22;4786;51.270;4.456;2023-07-09T04:42:13;22.50;99.90
9497;DHT22;4786;51.270;4.456;2023-07-09T04:44:40;22.50;99.90
9497;DHT22;4786;51.270;4.456;2023-07-09T04:47:07;22.50;99.90
9497;DHT22;4786;51.270;4.456;2023-07-09T04:49:33;22.60;99.90
9497;DHT22;4786;51.270;4.456;2023-07-09T04:52:00;22.60;99.90
9497;DHT22;4786;51.270;4.456;2023-07-09T04:54:27;22.60;99.90
9497;DHT22;4786;51.270;4.456;2023-07-09T04:56:53;22.70;99.90
9497;DHT22;4786;51.270;4.456;2023-07-09T04:59:19;22.70;99.90
9497;DHT22;4786;51.270;4.456;2023-07-09T05:01:45;22.70;99.90
9497;DHT22;4786;51.270;4.456;2023-07-09T05:04:11;22.90;99.90
9497;DHT22;4786;51.270;4.456;2023-07-09T05:06:38;22.90;99.90
9497;DHT22;4786;51.270;4.456;2023-07-09T05:09:04;23.00;99.90
9497;DHT22;4786;51.270;4.456;2023-07-09T05:11:34;23.20;99.90
9497;DHT22;4786;51.270;4.456;2023-07-09T05:14:01;23.40;99.90
9497;DHT22;4786;51.270;4.456;2023-07-09T05:16:27;23.60;99.90
9497;DHT22;4786;51.270;4.456;2023-07-09T05:18:53;23.70;99.90
9497;DHT22;4786;51.270;4.456;2023-07-09T05:21:19;24.00;99.90
9497;DHT22;4786;51.270;4.456;2023-07-09T05:23:45;24.40;99.90
9497;DHT22;4786;51.270;4.456;2023-07-09T05:26:11;24.70;99.90
9497;DHT22;4786;51.270;4.456;2023-07-09T05:28:37;25.10;99.90
9497;DHT22;4786;51.270;4.456;2023-07-09T05:31:04;25.50;99.90
9497;DHT22;4786;51.270;4.456;2023-07-09T05:33:30;25.80;99.90
9497;DHT22;4786;51.270;4.456;2023-07-09T05:35:56;26.40;99.90
9497;DHT22;4786;51.270;4.456;2023-07-09T05:38:22;27.00;99.90
9497;DHT22;4786;51.270;4.456;2023-07-09T05:40:48;27.60;99.90
9497;DHT22;4786;51.270;4.456;2023-07-09T05:43:14;27.80;99.90
9497;DHT22;4786;51.270;4.456;2023-07-09T05:45:40;28.50;99.90
9497;DHT22;4786;51.270;4.456;2023-07-09T05:48:06;28.80;99.90
9497;DHT22;4786;51.270;4.456;2023-07-09T05:50:34;29.20;99.90
9497;DHT22;4786;51.270;4.456;2023-07-09T05:53:00;29.70;99.90
9497;DHT22;4786;51.270;4.456;2023-07-09T05:55:26;30.30;99.90
9497;DHT22;4786;51.270;4.456;2023-07-09T05:57:53;30.80;99.90
9497;DHT22;4786;51.270;4.456;2023-07-09T06:00:20;31.50;99.90
9497;DHT22;4786;51.270;4.456;2023-07-09T06:02:45;32.20;99.90
9497;DHT22;4786;51.270;4.456;2023-07-09T06:05:11;32.80;99.90
9497;DHT22;4786;51.270;4.456;2023-07-09T06:07:38;33.20;99.90
9497;DHT22;4786;51.270;4.456;2023-07-09T06:10:08;33.60;99.90
9497;DHT22;4786;51.270;4.456;2023-07-09T06:12:34;34.00;99.90
9497;DHT22;4786;51.270;4.456;2023-07-09T06:15:00;34.10;99.90
9497;DHT22;4786;51.270;4.456;2023-07-09T06:17:26;34.50;99.90
9497;DHT22;4786;51.270;4.456;2023-07-09T06:19:51;34.90;99.90
9497;DHT22;4786;51.270;4.456;2023-07-09T06:22:17;35.30;99.90
9497;DHT22;4786;51.270;4.456;2023-07-09T06:24:45;35.50;99.90
9497;DHT22;4786;51.270;4.456;2023-07-09T06:27:11;35.70;99.90
9497;DHT22;4786;51.270;4.456;2023-07-09T06:29:37;35.80;99.90
9497;DHT22;4786;51.270;4.456;2023-07-09T06:32:04;35.90;99.90
9497;DHT22;4786;51.270;4.456;2023-07-09T06:34:30;36.00;99.40
9497;DHT22;4786;51.270;4.456;2023-07-09T06:36:56;36.00;99.40
9497;DHT22;4786;51.270;4.456;2023-07-09T06:39:23;36.00;98.10
9497;DHT22;4786;51.270;4.456;2023-07-09T06:41:49;36.10;96.90
9497;DHT22;4786;51.270;4.456;2023-07-09T06:44:15;36.40;96.80
9497;DHT22;4786;51.270;4.456;2023-07-09T06:46:41;36.40;96.40
9497;DHT22;4786;51.270;4.456;2023-07-09T06:49:07;36.40;96.30
9497;DHT22;4786;51.270;4.456;2023-07-09T06:51:33;36.50;95.90
9497;DHT22;4786;51.270;4.456;2023-07-09T06:53:59;36.70;96.00
9497;DHT22;4786;51.270;4.456;2023-07-09T06:56:25;36.60;95.80
9497;DHT22;4786;51.270;4.456;2023-07-09T06:58:51;36.40;96.30
9497;DHT22;4786;51.270;4.456;2023-07-09T07:01:17;36.40;96.40
9497;DHT22;4786;51.270;4.456;2023-07-09T07:03:43;36.40;95.90
9497;DHT22;4786;51.270;4.456;2023-07-09T07:06:09;36.30;95.80
9497;DHT22;4786;51.270;4.456;2023-07-09T07:08:35;35.90;95.30
9497;DHT22;4786;51.270;4.456;2023-07-09T07:11:03;35.80;96.00
9497;DHT22;4786;51.270;4.456;2023-07-09T07:13:31;35.70;96.90
9497;DHT22;4786;51.270;4.456;2023-07-09T07:15:57;35.80;97.10
9497;DHT22;4786;51.270;4.456;2023-07-09T07:18:23;35.70;97.00
9497;DHT22;4786;51.270;4.456;2023-07-09T07:20:50;35.40;97.00
9497;DHT22;4786;51.270;4.456;2023-07-09T07:23:17;35.40;97.70
9497;DHT22;4786;51.270;4.456;2023-07-09T07:25:44;35.00;98.00
9497;DHT22;4786;51.270;4.456;2023-07-09T07:28:09;34.50;99.10
9497;DHT22;4786;51.270;4.456;2023-07-09T07:30:35;34.40;99.70
9497;DHT22;4786;51.270;4.456;2023-07-09T07:33:02;34.00;99.90
9497;DHT22;4786;51.270;4.456;2023-07-09T07:35:28;33.80;99.90
9497;DHT22;4786;51.270;4.456;2023-07-09T07:37:54;33.70;99.90
9497;DHT22;4786;51.270;4.456;2023-07-09T07:40:21;33.50;99.90
9497;DHT22;4786;51.270;4.456;2023-07-09T07:42:46;33.50;99.90
9497;DHT22;4786;51.270;4.456;2023-07-09T07:45:13;33.40;99.90
9497;DHT22;4786;51.270;4.456;2023-07-09T07:47:39;33.40;99.90
9497;DHT22;4786;51.270;4.456;2023-07-09T07:50:06;33.30;99.90
9497;DHT22;4786;51.270;4.456;2023-07-09T07:52:32;33.10;99.90
9497;DHT22;4786;51.270;4.456;2023-07-09T07:55:01;32.80;99.90
9497;DHT22;4786;51.270;4.456;2023-07-09T07:57:28;32.60;99.90
9497;DHT22;4786;51.270;4.456;2023-07-09T07:59:53;32.60;99.90
9497;DHT22;4786;51.270;4.456;2023-07-09T08:02:19;32.50;99.90
9497;DHT22;4786;51.270;4.456;2023-07-09T08:04:45;32.20;99.90
9497;DHT22;4786;51.270;4.456;2023-07-09T08:07:11;32.20;99.90
9497;DHT22;4786;51.270;4.456;2023-07-09T08:09:37;32.20;99.90
9497;DHT22;4786;51.270;4.456;2023-07-09T08:12:05;32.20;99.90
9497;DHT22;4786;51.270;4.456;2023-07-09T08:14:35;32.10;99.90
9497;DHT22;4786;51.270;4.456;2023-07-09T08:17:01;32.00;99.90
9497;DHT22;4786;51.270;4.456;2023-07-09T08:19:27;32.00;99.90
9497;DHT22;4786;51.270;4.456;2023-07-09T08:21:53;32.10;99.90
9497;DHT22;4786;51.270;4.456;2023-07-09T08:24:18;32.20;99.90
9497;DHT22;4786;51.270;4.456;2023-07-09T08:26:44;32.10;99.90
9497;DHT22;4786;51.270;4.456;2023-07-09T08:29:10;32.00;99.90
9497;DHT22;4786;51.270;4.456;2023-07-09T08:31:37;32.10;99.90
9497;DHT22;4786;51.270;4.456;2023-07-09T08:34:05;32.10;99.90
9497;DHT22;4786;51.270;4.456;2023-07-09T08:36:32;32.20;99.90
9497;DHT22;4786;51.270;4.456;2023-07-09T08:38:58;32.20;99.90
9497;DHT22;4786;51.270;4.456;2023-07-09T08:41:36;32.20;99.90
9497;DHT22;4786;51.270;4.456;2023-07-09T08:44:43;32.20;99.90
9497;DHT22;4786;51.270;4.456;2023-07-09T08:50:20;32.00;99.90
9497;DHT22;4786;51.270;4.456;2023-07-09T08:52:49;31.90;99.90
9497;DHT22;4786;51.270;4.456;2023-07-09T08:55:23;31.60;99.90
9497;DHT22;4786;51.270;4.456;2023-07-09T08:58:01;31.60;99.90
9497;DHT22;4786;51.270;4.456;2023-07-09T09:00:43;31.70;99.90
9497;DHT22;4786;51.270;4.456;2023-07-09T09:05:57;31.70;99.90
9497;DHT22;4786;51.270;4.456;2023-07-09T09:08:54;31.50;99.90
9497;DHT22;4786;51.270;4.456;2023-07-09T09:14:00;31.40;99.90
9497;DHT22;4786;51.270;4.456;2023-07-09T09:16:29;31.50;99.90
9497;DHT22;4786;51.270;4.456;2023-07-09T09:18:59;31.60;99.90
9497;DHT22;4786;51.270;4.456;2023-07-09T09:21:35;31.60;99.90
9497;DHT22;4786;51.270;4.456;2023-07-09T09:24:23;31.50;99.90
9497;DHT22;4786;51.270;4.456;2023-07-09T09:26:53;31.50;99.90
9497;DHT22;4786;51.270;4.456;2023-07-09T09:29:24;31.40;99.90
9497;DHT22;4786;51.270;4.456;2023-07-09T09:31:56;31.50;99.90
9497;DHT22;4786;51.270;4.456;2023-07-09T09:34:26;31.60;99.90
9497;DHT22;4786;51.270;4.456;2023-07-09T09:36:52;31.80;99.90
9497;DHT22;4786;51.270;4.456;2023-07-09T09:39:20;32.00;99.90
9497;DHT22;4786;51.270;4.456;2023-07-09T09:41:47;32.10;99.90
9497;DHT22;4786;51.270;4.456;2023-07-09T09:44:21;32.10;99.90
9497;DHT22;4786;51.270;4.456;2023-07-09T09:46:48;32.20;99.90
9497;DHT22;4786;51.270;4.456;2023-07-09T09:49:16;32.20;99.90
9497;DHT22;4786;51.270;4.456;2023-07-09T09:51:45;32.30;99.90
9497;DHT22;4786;51.270;4.456;2023-07-09T09:54:23;32.30;99.90
9497;DHT22;4786;51.270;4.456;2023-07-09T09:56:50;32.50;99.90
9497;DHT22;4786;51.270;4.456;2023-07-09T09:59:29;32.60;99.90
9497;DHT22;4786;51.270;4.456;2023-07-09T10:02:01;32.80;99.90
9497;DHT22;4786;51.270;4.456;2023-07-09T10:04:28;32.90;99.90
9497;DHT22;4786;51.270;4.456;2023-07-09T10:07:03;33.00;99.90
9497;DHT22;4786;51.270;4.456;2023-07-09T10:17:47;33.40;99.90
9497;DHT22;4786;51.270;4.456;2023-07-09T10:20:39;33.40;99.90
9497;DHT22;4786;51.270;4.456;2023-07-09T10:23:20;33.30;99.90
9497;DHT22;4786;51.270;4.456;2023-07-09T10:33:27;32.80;99.90
9497;DHT22;4786;51.270;4.456;2023-07-09T10:36:26;32.60;99.90
9497;DHT22;4786;51.270;4.456;2023-07-09T10:39:04;32.50;99.90
9497;DHT22;4786;51.270;4.456;2023-07-09T10:41:34;32.40;99.90
9497;DHT22;4786;51.270;4.456;2023-07-09T10:44:30;32.50;99.90
9497;DHT22;4786;51.270;4.456;2023-07-09T10:46:58;32.50;99.90
9497;DHT22;4786;51.270;4.456;2023-07-09T10:49:32;32.30;99.90
9497;DHT22;4786;51.270;4.456;2023-07-09T10:57:44;31.60;99.90
9497;DHT22;4786;51.270;4.456;2023-07-09T11:00:23;31.30;99.90
9497;DHT22;4786;51.270;4.456;2023-07-09T11:02:59;31.10;99.90
9497;DHT22;4786;51.270;4.456;2023-07-09T11:05:25;31.00;99.90
9497;DHT22;4786;51.270;4.456;2023-07-09T11:08:13;30.80;99.90
9497;DHT22;4786;51.270;4.456;2023-07-09T11:10:44;30.70;99.90
9497;DHT22;4786;51.270;4.456;2023-07-09T11:15:50;30.50;99.90
9497;DHT22;4786;51.270;4.456;2023-07-09T11:18:25;30.40;99.90
9497;DHT22;4786;51.270;4.456;2023-07-09T11:21:14;30.50;99.90
9497;DHT22;4786;51.270;4.456;2023-07-09T11:26:34;30.40;99.90
9497;DHT22;4786;51.270;4.456;2023-07-09T11:36:33;30.80;99.90
9497;DHT22;4786;51.270;4.456;2023-07-09T11:39:00;31.00;99.90
9497;DHT22;4786;51.270;4.456;2023-07-09T11:44:18;31.20;99.90
9497;DHT22;4786;51.270;4.456;2023-07-09T11:49:25;31.20;99.90
9497;DHT22;4786;51.270;4.456;2023-07-09T11:51:55;31.20;99.90
9497;DHT22;4786;51.270;4.456;2023-07-09T11:54:23;31.30;99.90
9497;DHT22;4786;51.270;4.456;2023-07-09T11:57:00;31.20;99.90
9497;DHT22;4786;51.270;4.456;2023-07-09T11:59:28;31.30;99.90
9497;DHT22;4786;51.270;4.456;2023-07-09T12:01:54;31.30;99.90
9497;DHT22;4786;51.270;4.456;2023-07-09T12:04:27;31.10;99.90
9497;DHT22;4786;51.270;4.456;2023-07-09T12:06:58;30.90;99.90
9497;DHT22;4786;51.270;4.456;2023-07-09T12:09:31;30.80;99.90
9497;DHT22;4786;51.270;4.456;2023-07-09T12:11:58;30.70;99.90
9497;DHT22;4786;51.270;4.456;2023-07-09T12:14:24;30.60;99.90
9497;DHT22;4786;51.270;4.456;2023-07-09T12:16:52;30.40;99.90
9497;DHT22;4786;51.270;4.456;2023-07-09T12:19:20;30.20;99.90
9497;DHT22;4786;51.270;4.456;2023-07-09T12:21:51;30.00;99.90
9497;DHT22;4786;51.270;4.456;2023-07-09T12:24:20;29.70;99.90
9497;DHT22;4786;51.270;4.456;2023-07-09T12:26:52;29.60;99.90
9497;DHT22;4786;51.270;4.456;2023-07-09T12:29:18;29.50;99.90
9497;DHT22;4786;51.270;4.456;2023-07-09T12:31:45;29.50;99.90
9497;DHT22;4786;51.270;4.456;2023-07-09T12:34:13;29.40;99.90
9497;DHT22;4786;51.270;4.456;2023-07-09T12:36:45;29.50;99.90
9497;DHT22;4786;51.270;4.456;2023-07-09T12:39:12;29.40;99.90
9497;DHT22;4786;51.270;4.456;2023-07-09T12:41:44;29.30;99.90
9497;DHT22;4786;51.270;4.456;2023-07-09T12:44:21;29.20;99.90
9497;DHT22;4786;51.270;4.456;2023-07-09T12:46:48;29.20;99.90
9497;DHT22;4786;51.270;4.456;2023-07-09T12:49:39;29.20;99.90
9497;DHT22;4786;51.270;4.456;2023-07-09T12:52:19;29.20;99.90
9497;DHT22;4786;51.270;4.456;2023-07-09T12:54:58;29.10;99.90
9497;DHT22;4786;51.270;4.456;2023-07-09T12:57:26;28.90;99.90
9497;DHT22;4786;51.270;4.456;2023-07-09T12:59:53;28.80;99.90
9497;DHT22;4786;51.270;4.456;2023-07-09T13:02:20;28.60;99.90
9497;DHT22;4786;51.270;4.456;2023-07-09T13:04:48;28.30;99.90
9497;DHT22;4786;51.270;4.456;2023-07-09T13:09:53;27.80;99.90
9497;DHT22;4786;51.270;4.456;2023-07-09T13:12:32;27.50;99.90
9497;DHT22;4786;51.270;4.456;2023-07-09T13:14:59;27.10;99.90
9497;DHT22;4786;51.270;4.456;2023-07-09T13:17:29;26.70;99.90
9497;DHT22;4786;51.270;4.456;2023-07-09T13:19:55;26.50;99.90
9497;DHT22;4786;51.270;4.456;2023-07-09T13:22:22;26.20;99.90
9497;DHT22;4786;51.270;4.456;2023-07-09T13:24:49;26.00;99.90
9497;DHT22;4786;51.270;4.456;2023-07-09T13:27:15;25.80;99.90
9497;DHT22;4786;51.270;4.456;2023-07-09T13:29:42;25.70;99.90
9497;DHT22;4786;51.270;4.456;2023-07-09T13:32:13;25.60;99.90
9497;DHT22;4786;51.270;4.456;2023-07-09T13:34:39;25.60;99.90
9497;DHT22;4786;51.270;4.456;2023-07-09T13:37:12;25.60;99.90
9497;DHT22;4786;51.270;4.456;2023-07-09T13:39:39;25.60;99.90
9497;DHT22;4786;51.270;4.456;2023-07-09T13:42:10;25.50;99.90
9497;DHT22;4786;51.270;4.456;2023-07-09T13:44:39;25.30;99.90
9497;DHT22;4786;51.270;4.456;2023-07-09T13:47:05;25.40;99.90
9497;DHT22;4786;51.270;4.456;2023-07-09T13:49:32;25.40;99.90
9497;DHT22;4786;51.270;4.456;2023-07-09T13:51:59;25.50;99.90
9497;DHT22;4786;51.270;4.456;2023-07-09T13:54:28;25.60;99.90
9497;DHT22;4786;51.270;4.456;2023-07-09T13:57:01;25.70;99.90
9497;DHT22;4786;51.270;4.456;2023-07-09T13:59:29;25.70;99.90
9497;DHT22;4786;51.270;4.456;2023-07-09T14:01:57;25.70;99.90
9497;DHT22;4786;51.270;4.456;2023-07-09T14:04:24;25.70;99.90
9497;DHT22;4786;51.270;4.456;2023-07-09T14:06:50;25.70;99.90
9497;DHT22;4786;51.270;4.456;2023-07-09T14:09:16;25.50;99.90
9497;DHT22;4786;51.270;4.456;2023-07-09T14:11:48;25.50;99.90
9497;DHT22;4786;51.270;4.456;2023-07-09T14:14:28;25.60;99.90
9497;DHT22;4786;51.270;4.456;2023-07-09T14:16:56;25.70;99.90
9497;DHT22;4786;51.270;4.456;2023-07-09T14:19:23;25.80;99.90
9497;DHT22;4786;51.270;4.456;2023-07-09T14:21:51;25.90;99.90
9497;DHT22;4786;51.270;4.456;2023-07-09T14:26:43;26.00;99.90
9497;DHT22;4786;51.270;4.456;2023-07-09T14:29:11;26.00;99.90
9497;DHT22;4786;51.270;4.456;2023-07-09T14:31:39;26.10;99.90
9497;DHT22;4786;51.270;4.456;2023-07-09T14:34:30;26.10;99.90
9497;DHT22;4786;51.270;4.456;2023-07-09T14:36:58;26.20;99.90
9497;DHT22;4786;51.270;4.456;2023-07-09T14:39:27;26.20;99.90
9497;DHT22;4786;51.270;4.456;2023-07-09T14:41:53;26.20;99.90
9497;DHT22;4786;51.270;4.456;2023-07-09T14:44:30;26.40;99.90
9497;DHT22;4786;51.270;4.456;2023-07-09T14:46:58;26.50;99.90
9497;DHT22;4786;51.270;4.456;2023-07-09T14:49:26;26.70;99.90
9497;DHT22;4786;51.270;4.456;2023-07-09T14:51:53;26.90;99.90
9497;DHT22;4786;51.270;4.456;2023-07-09T14:54:28;27.00;99.90
9497;DHT22;4786;51.270;4.456;2023-07-09T14:56:55;26.90;99.90
9497;DHT22;4786;51.270;4.456;2023-07-09T14:59:22;26.90;99.90
9497;DHT22;4786;51.270;4.456;2023-07-09T15:01:49;26.70;99.90
9497;DHT22;4786;51.270;4.456;2023-07-09T15:06:50;26.80;99.90
9497;DHT22;4786;51.270;4.456;2023-07-09T15:09:23;26.90;99.90
9497;DHT22;4786;51.270;4.456;2023-07-09T15:11:55;26.90;99.90
9497;DHT22;4786;51.270;4.456;2023-07-09T15:14:23;26.90;99.90
9497;DHT22;4786;51.270;4.456;2023-07-09T15:16:49;26.90;99.90
9497;DHT22;4786;51.270;4.456;2023-07-09T15:19:19;26.90;99.90
9497;DHT22;4786;51.270;4.456;2023-07-09T15:21:47;26.90;99.90
9497;DHT22;4786;51.270;4.456;2023-07-09T15:24:22;26.90;99.90
9497;DHT22;4786;51.270;4.456;2023-07-09T15:26:52;27.00;99.90
9497;DHT22;4786;51.270;4.456;2023-07-09T15:29:20;26.90;99.90
9497;DHT22;4786;51.270;4.456;2023-07-09T15:31:46;27.00;99.90
9497;DHT22;4786;51.270;4.456;2023-07-09T15:34:12;27.10;99.90
9497;DHT22;4786;51.270;4.456;2023-07-09T15:36:45;27.10;99.90
9497;DHT22;4786;51.270;4.456;2023-07-09T15:39:12;27.10;99.90
9497;DHT22;4786;51.270;4.456;2023-07-09T15:41:38;27.10;99.90
9497;DHT22;4786;51.270;4.456;2023-07-09T15:44:08;27.20;99.90
9497;DHT22;4786;51.270;4.456;2023-07-09T15:46:34;27.20;99.90
9497;DHT22;4786;51.270;4.456;2023-07-09T15:49:00;27.10;99.90
9497;DHT22;4786;51.270;4.456;2023-07-09T15:51:26;27.10;99.90
9497;DHT22;4786;51.270;4.456;2023-07-09T15:53:52;26.90;99.90
9497;DHT22;4786;51.270;4.456;2023-07-09T15:56:20;26.70;99.90
9497;DHT22;4786;51.270;4.456;2023-07-09T15:58:48;26.60;99.90
9497;DHT22;4786;51.270;4.456;2023-07-09T16:01:17;26.40;99.90
9497;DHT22;4786;51.270;4.456;2023-07-09T16:03:49;26.30;99.90
9497;DHT22;4786;51.270;4.456;2023-07-09T16:06:16;26.20;99.90
9497;DHT22;4786;51.270;4.456;2023-07-09T16:08:42;26.00;99.90
9497;DHT22;4786;51.270;4.456;2023-07-09T16:11:20;26.10;99.90
9497;DHT22;4786;51.270;4.456;2023-07-09T16:13:47;26.20;99.90
9497;DHT22;4786;51.270;4.456;2023-07-09T16:16:15;26.20;99.90
9497;DHT22;4786;51.270;4.456;2023-07-09T16:18:42;26.40;99.90
9497;DHT22;4786;51.270;4.456;2023-07-09T16:21:23;26.30;99.90
9497;DHT22;4786;51.270;4.456;2023-07-09T16:23:50;26.10;99.90
9497;DHT22;4786;51.270;4.456;2023-07-09T16:26:16;26.00;99.90
9497;DHT22;4786;51.270;4.456;2023-07-09T16:28:42;25.80;99.90
9497;DHT22;4786;51.270;4.456;2023-07-09T16:31:08;25.80;99.90
9497;DHT22;4786;51.270;4.456;2023-07-09T16:33:35;25.60;99.90
9497;DHT22;4786;51.270;4.456;2023-07-09T16:36:01;25.50;99.90
9497;DHT22;4786;51.270;4.456;2023-07-09T16:38:30;25.40;99.90
9497;DHT22;4786;51.270;4.456;2023-07-09T16:40:57;25.40;99.90
9497;DHT22;4786;51.270;4.456;2023-07-09T16:43:23;25.50;99.90
9497;DHT22;4786;51.270;4.456;2023-07-09T16:45:50;25.50;99.90
9497;DHT22;4786;51.270;4.456;2023-07-09T16:48:23;25.50;99.90
9497;DHT22;4786;51.270;4.456;2023-07-09T16:50:51;25.60;99.90
9497;DHT22;4786;51.270;4.456;2023-07-09T16:53:19;25.50;99.90
9497;DHT22;4786;51.270;4.456;2023-07-09T16:55:46;25.30;99.90
9497;DHT22;4786;51.270;4.456;2023-07-09T16:58:18;25.30;99.90
9497;DHT22;4786;51.270;4.456;2023-07-09T17:00:44;25.20;99.90
9497;DHT22;4786;51.270;4.456;2023-07-09T17:03:12;25.10;99.90
9497;DHT22;4786;51.270;4.456;2023-07-09T17:05:38;25.10;99.90
9497;DHT22;4786;51.270;4.456;2023-07-09T17:08:04;25.00;99.90